createdAt,value
2019-01-28T00:00:38.221Z,4.17
2019-01-28T00:03:46.067Z,4.18
2019-01-28T00:06:12.781Z,4.16
2019-01-28T00:08:39.784Z,4.24
2019-01-28T00:11:06.756Z,4.20
2019-01-28T00:13:33.950Z,4.19
2019-01-28T00:16:00.799Z,4.16
2019-01-28T00:18:27.585Z,4.12
2019-01-28T00:20:54.324Z,4.15
2019-01-28T00:23:20.951Z,4.12
2019-01-28T00:25:47.867Z,4.14
2019-01-28T00:28:14.737Z,4.14
2019-01-28T00:30:41.467Z,4.22
2019-01-28T00:33:08.275Z,4.18
2019-01-28T00:35:35.028Z,4.16
2019-01-28T00:38:02.038Z,4.17
2019-01-28T00:40:28.936Z,4.16
2019-01-28T00:42:55.963Z,4.18
2019-01-28T00:45:22.810Z,4.20
2019-01-28T00:47:49.855Z,4.17
2019-01-28T00:50:16.696Z,4.13
2019-01-28T00:52:43.575Z,4.13
2019-01-28T00:55:51.493Z,4.11
2019-01-28T00:58:18.247Z,4.10
2019-01-28T01:00:45.079Z,4.10
2019-01-28T01:03:12.296Z,4.08
2019-01-28T01:05:39.405Z,4.12
2019-01-28T01:08:06.235Z,4.12
2019-01-28T01:10:33.425Z,4.07
2019-01-28T01:13:00.162Z,4.06
2019-01-28T01:15:26.921Z,4.04
2019-01-28T01:17:53.825Z,4.07
2019-01-28T01:20:20.563Z,4.09
2019-01-28T01:22:47.322Z,4.09
2019-01-28T01:25:14.260Z,4.07
2019-01-28T01:28:00.605Z,4.10
2019-01-28T01:30:27.677Z,4.12
2019-01-28T01:32:54.406Z,4.15
2019-01-28T01:35:21.252Z,4.14
2019-01-28T01:37:48.045Z,4.11
2019-01-28T01:40:15.277Z,4.23
2019-01-28T01:42:55.148Z,4.18
2019-01-28T01:45:21.997Z,4.27
2019-01-28T01:47:48.744Z,4.24
2019-01-28T01:50:15.568Z,4.24
2019-01-28T01:52:42.674Z,4.27
2019-01-28T01:55:10.893Z,4.29
2019-01-28T01:57:37.901Z,4.23
2019-01-28T02:00:46.828Z,4.30
2019-01-28T02:03:13.980Z,4.31
2019-01-28T02:05:40.714Z,4.35
2019-01-28T02:08:07.435Z,4.27
2019-01-28T02:10:34.612Z,4.20
2019-01-28T02:13:01.709Z,4.25
2019-01-28T02:15:28.434Z,4.09
2019-01-28T02:17:55.257Z,4.17
2019-01-28T02:20:22.123Z,4.19
2019-01-28T02:22:49.333Z,4.15
2019-01-28T02:25:16.124Z,4.12
2019-01-28T02:27:42.948Z,4.04
2019-01-28T02:30:11.947Z,4.20
2019-01-28T02:32:38.798Z,4.23
2019-01-28T02:35:06.011Z,4.16
2019-01-28T02:37:32.919Z,4.09
2019-01-28T02:39:59.901Z,4.19
2019-01-28T02:42:26.631Z,4.08
2019-01-28T02:45:06.276Z,4.12
2019-01-28T02:47:33.010Z,4.10
2019-01-28T02:49:59.770Z,4.10
2019-01-28T02:52:26.447Z,4.06
2019-01-28T02:54:53.176Z,4.02
2019-01-28T02:57:20.258Z,4.03
2019-01-28T02:59:47.281Z,4.00
2019-01-28T03:02:14.003Z,3.98
2019-01-28T03:04:40.631Z,4.01
2019-01-28T03:07:07.556Z,3.98
2019-01-28T03:09:34.284Z,4.01
2019-01-28T03:12:01.511Z,4.06
2019-01-28T03:14:28.742Z,4.04
2019-01-28T03:17:07.480Z,3.98
2019-01-28T03:19:34.393Z,3.94
2019-01-28T03:22:01.115Z,3.94
2019-01-28T03:24:27.862Z,3.89
2019-01-28T03:26:54.688Z,3.91
2019-01-28T03:29:21.584Z,3.91
2019-01-28T03:31:48.311Z,3.84
2019-01-28T03:34:15.233Z,3.86
2019-01-28T03:36:41.958Z,3.77
2019-01-28T03:39:08.698Z,3.80
2019-01-28T03:41:35.803Z,3.78
2019-01-28T03:44:02.917Z,3.83
2019-01-28T03:46:29.998Z,3.80
2019-01-28T03:48:57.117Z,3.75
2019-01-28T03:51:24.106Z,3.70
2019-01-28T03:53:50.947Z,3.69
2019-01-28T03:56:17.835Z,3.66
2019-01-28T03:58:44.676Z,3.65
2019-01-28T04:01:11.688Z,3.57
2019-01-28T04:03:38.535Z,3.62
2019-01-28T04:06:05.277Z,3.54
2019-01-28T04:08:32.411Z,3.56
2019-01-28T04:10:59.535Z,3.58
2019-01-28T04:13:26.276Z,3.47
2019-01-28T04:15:53.145Z,3.50
2019-01-28T04:18:19.999Z,3.49
2019-01-28T04:20:46.723Z,3.46
2019-01-28T04:23:13.474Z,3.43
2019-01-28T04:25:40.294Z,3.44
2019-01-28T04:28:07.166Z,3.36
2019-01-28T04:30:34.430Z,3.34
2019-01-28T04:33:01.283Z,3.36
2019-01-28T04:35:28.019Z,3.33
2019-01-28T04:37:54.764Z,3.22
2019-01-28T04:40:21.661Z,3.20
2019-01-28T04:42:48.511Z,3.23
2019-01-28T04:45:16.188Z,3.16
2019-01-28T04:47:43.427Z,3.15
2019-01-28T04:50:12.696Z,3.12
2019-01-28T04:52:39.430Z,3.13
2019-01-28T04:55:06.536Z,3.14
2019-01-28T04:57:33.373Z,3.09
2019-01-28T05:00:00.280Z,3.06
2019-01-28T05:02:27.091Z,3.06
2019-01-28T05:04:54.108Z,3.00
2019-01-28T05:07:20.944Z,3.00
2019-01-28T05:09:48.132Z,2.92
2019-01-28T05:12:14.984Z,2.91
2019-01-28T05:14:42.032Z,2.91
2019-01-28T05:17:08.943Z,2.88
2019-01-28T05:19:35.683Z,2.91
2019-01-28T05:22:02.439Z,2.88
2019-01-28T05:24:29.511Z,2.86
2019-01-28T05:26:56.378Z,2.86
2019-01-28T05:29:23.318Z,2.83
2019-01-28T05:31:50.293Z,2.84
2019-01-28T05:34:17.034Z,2.87
2019-01-28T05:36:43.998Z,2.84
2019-01-28T05:39:10.816Z,2.82
2019-01-28T05:41:37.706Z,2.83
2019-01-28T05:44:04.765Z,2.68
2019-01-28T05:46:31.550Z,2.56
2019-01-28T05:48:58.622Z,2.52
2019-01-28T05:51:25.453Z,2.37
2019-01-28T05:53:52.307Z,2.31
2019-01-28T05:56:19.163Z,2.21
2019-01-28T05:58:45.810Z,2.16
2019-01-28T06:01:12.598Z,2.22
2019-01-28T06:03:39.624Z,2.09
2019-01-28T06:06:06.375Z,2.04
2019-01-28T06:08:33.163Z,1.98
2019-01-28T06:11:00.021Z,1.92
2019-01-28T06:13:27.003Z,1.92
2019-01-28T06:15:54.032Z,1.88
2019-01-28T06:18:20.768Z,1.84
2019-01-28T06:20:47.495Z,1.84
2019-01-28T06:23:14.385Z,1.84
2019-01-28T06:25:41.220Z,1.81
2019-01-28T06:28:07.949Z,1.84
2019-01-28T06:30:54.319Z,1.77
2019-01-28T06:33:21.492Z,1.69
2019-01-28T06:35:48.215Z,1.62
2019-01-28T06:38:15.188Z,1.64
2019-01-28T06:41:22.946Z,1.65
2019-01-28T06:43:49.779Z,1.65
2019-01-28T06:46:16.604Z,1.60
2019-01-28T06:48:43.631Z,1.66
2019-01-28T06:51:10.601Z,1.58
2019-01-28T06:53:37.694Z,1.53
2019-01-28T06:56:04.537Z,1.58
2019-01-28T06:58:31.520Z,1.52
2019-01-28T07:00:58.154Z,1.47
2019-01-28T07:03:25.418Z,1.42
2019-01-28T07:05:52.317Z,1.38
2019-01-28T07:08:19.160Z,1.34
2019-01-28T07:10:45.902Z,1.45
2019-01-28T07:13:12.711Z,1.45
2019-01-28T07:15:39.557Z,1.42
2019-01-28T07:18:06.390Z,1.43
2019-01-28T07:20:33.481Z,1.39
2019-01-28T07:23:00.682Z,1.36
2019-01-28T07:25:27.597Z,1.41
2019-01-28T07:27:54.560Z,1.34
2019-01-28T07:30:44.135Z,1.43
2019-01-28T07:33:10.928Z,1.42
2019-01-28T07:35:37.665Z,1.38
2019-01-28T07:38:04.507Z,1.46
2019-01-28T07:40:31.590Z,1.54
2019-01-28T07:42:58.434Z,1.47
2019-01-28T07:45:30.006Z,1.56
2019-01-28T07:48:02.702Z,1.57
2019-01-28T07:50:25.567Z,1.53
2019-01-28T07:52:52.402Z,1.59
2019-01-28T07:55:19.289Z,1.64
2019-01-28T07:57:46.116Z,1.65
2019-01-28T08:00:55.861Z,1.65
2019-01-28T08:03:22.681Z,1.65
2019-01-28T08:05:49.651Z,1.63
2019-01-28T08:08:18.499Z,1.65
2019-01-28T08:10:45.613Z,1.69
2019-01-28T08:13:12.548Z,1.79
2019-01-28T08:15:39.653Z,1.88
2019-01-28T08:18:10.888Z,2.07
2019-01-28T08:20:35.639Z,2.23
2019-01-28T08:26:16.842Z,2.77
2019-01-28T08:28:44.009Z,2.82
2019-01-28T08:31:12.212Z,3.19
2019-01-28T08:33:40.972Z,3.42
2019-01-28T08:36:07.941Z,3.54
2019-01-28T08:38:35.564Z,3.56
2019-01-28T08:41:03.089Z,3.65
2019-01-28T08:43:29.981Z,3.64
2019-01-28T08:45:56.984Z,3.70
2019-01-28T08:48:46.110Z,3.84
2019-01-28T08:51:12.982Z,3.90
2019-01-28T08:53:39.773Z,3.81
2019-01-28T08:56:07.000Z,4.07
2019-01-28T08:58:34.854Z,4.22
2019-01-28T09:01:02.668Z,4.18
2019-01-28T09:03:30.895Z,4.20
2019-01-28T09:05:58.488Z,4.18
2019-01-28T09:08:25.875Z,4.12
2019-01-28T09:10:52.732Z,4.11
2019-01-28T09:13:19.667Z,3.93
2019-01-28T09:15:46.944Z,3.94
2019-01-28T09:18:33.384Z,3.98
2019-01-28T09:21:00.419Z,3.92
2019-01-28T09:23:27.601Z,3.98
2019-01-28T09:25:54.609Z,4.06
2019-01-28T09:28:21.647Z,4.08
2019-01-28T09:30:48.954Z,4.08
2019-01-28T09:33:17.669Z,4.15
2019-01-28T09:35:44.526Z,4.10
2019-01-28T09:38:11.259Z,4.11
2019-01-28T09:40:38.348Z,4.20
2019-01-28T09:43:05.528Z,4.25
2019-01-28T09:45:34.473Z,4.39
2019-01-28T09:48:01.755Z,4.53
2019-01-28T09:50:28.689Z,4.67
2019-01-28T09:53:36.930Z,4.69
2019-01-28T09:56:16.646Z,4.74
2019-01-28T09:58:43.429Z,5.05
2019-01-28T10:01:10.273Z,5.12
2019-01-28T10:03:37.015Z,5.41
2019-01-28T10:06:04.194Z,5.40
2019-01-28T10:08:31.039Z,5.54
2019-01-28T10:10:57.774Z,5.64
2019-01-28T10:13:27.292Z,5.63
2019-01-28T10:15:54.278Z,5.76
2019-01-28T10:18:21.378Z,6.02
2019-01-28T10:20:48.721Z,6.03
2019-01-28T10:23:15.564Z,6.09
2019-01-28T10:25:43.110Z,6.08
2019-01-28T10:28:10.008Z,6.29
2019-01-28T10:30:38.561Z,6.47
2019-01-28T10:33:07.130Z,6.19
2019-01-28T10:36:15.221Z,6.45
2019-01-28T10:38:42.697Z,6.57
2019-01-28T10:41:09.687Z,6.51
2019-01-28T10:43:36.723Z,6.10
2019-01-28T10:46:03.566Z,6.24
2019-01-28T10:48:30.543Z,6.15
2019-01-28T10:50:57.515Z,6.11
2019-01-28T10:53:24.487Z,6.37
2019-01-28T10:55:51.352Z,6.38
2019-01-28T10:58:18.474Z,6.34
2019-01-28T11:00:47.753Z,6.46
2019-01-28T11:03:16.897Z,6.50
2019-01-28T11:05:43.903Z,6.42
2019-01-28T11:08:10.649Z,6.20
2019-01-28T11:10:37.780Z,6.22
2019-01-28T11:13:05.591Z,6.33
2019-01-28T11:15:32.375Z,6.19
2019-01-28T11:17:59.289Z,6.16
2019-01-28T11:20:27.135Z,6.02
2019-01-28T11:22:54.045Z,6.16
2019-01-28T11:25:22.990Z,6.17
2019-01-28T11:27:50.056Z,6.17
2019-01-28T11:33:28.120Z,6.14
2019-01-28T11:35:54.972Z,6.03
2019-01-28T11:38:22.292Z,6.00
2019-01-28T11:40:49.344Z,5.98
2019-01-28T11:43:16.268Z,6.13
2019-01-28T11:45:46.569Z,6.22
2019-01-28T11:48:13.807Z,6.29
2019-01-28T11:51:21.915Z,6.43
2019-01-28T11:53:49.059Z,6.86
2019-01-28T11:56:15.833Z,7.08
2019-01-28T11:58:43.399Z,6.73
2019-01-28T12:01:30.332Z,6.61
2019-01-28T12:03:57.553Z,6.51
2019-01-28T12:06:24.859Z,6.14
2019-01-28T12:08:51.661Z,6.30
2019-01-28T12:11:18.734Z,6.17
2019-01-28T12:13:45.850Z,6.10
2019-01-28T12:16:12.755Z,6.07
2019-01-28T12:18:59.148Z,6.18
2019-01-28T12:21:26.063Z,6.17
2019-01-28T12:23:53.441Z,6.36
2019-01-28T12:26:20.555Z,6.41
2019-01-28T12:28:47.528Z,6.38
2019-01-28T12:31:14.835Z,6.31
2019-01-28T12:34:01.227Z,6.52
2019-01-28T12:36:28.067Z,6.58
2019-01-28T12:38:55.036Z,6.68
2019-01-28T12:41:41.652Z,6.78
2019-01-28T12:44:09.642Z,6.94
2019-01-28T12:46:36.822Z,7.11
2019-01-28T12:49:44.726Z,7.03
2019-01-28T12:52:11.482Z,6.94
2019-01-28T12:54:38.554Z,6.82
2019-01-28T12:57:05.376Z,6.76
2019-01-28T12:59:32.494Z,6.63
2019-01-28T13:01:59.733Z,6.56
2019-01-28T13:04:26.665Z,6.68
2019-01-28T13:06:53.416Z,6.74
2019-01-28T13:09:20.167Z,6.74
2019-01-28T13:11:47.097Z,6.81
2019-01-28T13:14:13.955Z,6.69
2019-01-28T13:16:40.929Z,6.42
2019-01-28T13:19:07.737Z,6.47
2019-01-28T13:21:34.895Z,6.35
2019-01-28T13:24:02.670Z,6.33
2019-01-28T13:26:29.601Z,6.43
2019-01-28T13:28:56.431Z,6.26
2019-01-28T13:31:23.280Z,6.29
2019-01-28T13:33:50.077Z,6.37
2019-01-28T13:36:16.815Z,6.24
2019-01-28T13:38:43.702Z,6.00
2019-01-28T13:41:10.662Z,6.14
2019-01-28T13:43:37.698Z,6.10
2019-01-28T13:46:04.451Z,6.02
2019-01-28T13:48:31.557Z,5.95
2019-01-28T13:50:58.398Z,5.87
2019-01-28T13:53:25.282Z,5.90
2019-01-28T13:55:55.359Z,5.88
2019-01-28T13:58:22.105Z,5.75
2019-01-28T14:00:49.431Z,5.75
2019-01-28T14:03:16.568Z,5.81
2019-01-28T14:06:03.827Z,5.76
2019-01-28T14:08:33.252Z,5.83
2019-01-28T14:11:00.474Z,5.69
2019-01-28T14:13:28.598Z,5.65
2019-01-28T14:15:56.609Z,5.56
2019-01-28T14:23:59.430Z,5.40
2019-01-28T14:29:18.968Z,5.23
2019-01-28T14:34:34.303Z,5.45
2019-01-28T14:37:04.764Z,5.43
2019-01-28T14:39:58.718Z,5.47
2019-01-28T14:43:07.102Z,5.54
2019-01-28T14:45:34.089Z,5.43
2019-01-28T14:48:00.966Z,5.51
2019-01-28T14:50:29.622Z,5.43
2019-01-28T14:52:56.619Z,5.44
2019-01-28T14:55:23.496Z,5.33
2019-01-28T14:57:50.389Z,5.34
2019-01-28T15:00:23.101Z,5.28
2019-01-28T15:02:53.963Z,5.09
2019-01-28T15:05:21.089Z,5.09
2019-01-28T15:07:48.134Z,5.07
2019-01-28T15:10:16.137Z,5.07
2019-01-28T15:12:52.662Z,4.90
2019-01-28T15:15:21.951Z,4.93
2019-01-28T15:17:48.669Z,4.92
2019-01-28T15:20:15.664Z,4.74
2019-01-28T15:22:42.556Z,4.47
2019-01-28T15:25:09.872Z,4.44
2019-01-28T15:27:36.909Z,4.34
2019-01-28T15:30:26.222Z,4.24
2019-01-28T15:32:53.387Z,4.19
2019-01-28T15:35:20.459Z,4.04
2019-01-28T15:37:47.390Z,3.98
2019-01-28T15:40:56.689Z,3.95
2019-01-28T15:43:23.688Z,3.89
2019-01-28T15:45:50.508Z,3.82
2019-01-28T15:48:17.401Z,3.79
2019-01-28T15:50:44.249Z,3.81
2019-01-28T15:53:11.109Z,3.77
2019-01-28T15:55:39.840Z,3.77
2019-01-28T15:58:07.824Z,3.70
2019-01-28T16:00:35.067Z,3.64
2019-01-28T16:03:22.105Z,3.66
2019-01-28T16:05:49.083Z,3.60
2019-01-28T16:08:16.315Z,3.60
2019-01-28T16:10:43.111Z,3.63
2019-01-28T16:13:10.391Z,3.68
2019-01-28T16:15:42.584Z,3.62
2019-01-28T16:18:50.681Z,3.55
2019-01-28T16:21:18.011Z,3.55
2019-01-28T16:23:44.649Z,3.41
2019-01-28T16:26:11.753Z,3.35
2019-01-28T16:28:38.966Z,3.42
2019-01-28T16:31:05.708Z,3.47
2019-01-28T16:33:32.673Z,3.34
2019-01-28T16:35:59.405Z,3.27
2019-01-28T16:38:26.515Z,3.20
2019-01-28T16:40:53.964Z,3.26
2019-01-28T16:43:20.818Z,3.29
2019-01-28T16:45:47.686Z,3.27
2019-01-28T16:48:14.617Z,3.31
2019-01-28T16:50:42.291Z,3.30
2019-01-28T16:53:09.114Z,3.17
2019-01-28T16:55:36.228Z,3.20
2019-01-28T16:58:24.381Z,3.18
2019-01-28T17:00:51.238Z,3.19
2019-01-28T17:03:18.636Z,3.23
2019-01-28T17:05:45.529Z,3.17
2019-01-28T17:08:12.530Z,3.17
2019-01-28T17:10:39.277Z,3.12
2019-01-28T17:13:07.015Z,3.03
2019-01-28T17:15:33.977Z,2.88
2019-01-28T17:18:01.155Z,2.83
2019-01-28T17:20:35.145Z,2.90
2019-01-28T17:22:57.283Z,2.94
2019-01-28T17:25:27.134Z,2.99
2019-01-28T17:27:53.967Z,2.92
2019-01-28T17:30:41.337Z,2.93
2019-01-28T17:33:08.305Z,2.80
2019-01-28T17:35:35.276Z,2.90
2019-01-28T17:38:02.118Z,2.92
2019-01-28T17:40:28.945Z,2.90
2019-01-28T17:42:55.979Z,2.99
2019-01-28T17:45:42.393Z,2.96
2019-01-28T17:48:09.371Z,2.93
2019-01-28T17:50:43.282Z,2.93
2019-01-28T17:53:46.341Z,2.88
2019-01-28T17:56:13.183Z,2.93
2019-01-28T17:58:39.924Z,2.89
2019-01-28T18:01:06.694Z,2.92
2019-01-28T18:03:33.813Z,2.94
2019-01-28T18:06:00.928Z,2.93
2019-01-28T18:08:27.938Z,2.85
2019-01-28T18:10:55.192Z,2.86
2019-01-28T18:13:22.014Z,2.87
2019-01-28T18:15:49.250Z,2.89
2019-01-28T18:18:16.078Z,2.88
2019-01-28T18:20:42.923Z,2.92
2019-01-28T18:23:16.787Z,2.98
2019-01-28T18:25:43.524Z,2.93
2019-01-28T18:28:10.632Z,2.94
2019-01-28T18:30:40.676Z,3.02
2019-01-28T18:33:07.523Z,2.92
2019-01-28T18:35:35.368Z,2.98
2019-01-28T18:38:02.355Z,3.00
2019-01-28T18:40:29.082Z,2.97
2019-01-28T18:42:55.819Z,2.98
2019-01-28T18:45:23.169Z,2.95
2019-01-28T18:47:49.901Z,2.92
2019-01-28T18:50:16.736Z,2.95
2019-01-28T18:52:44.207Z,3.00
2019-01-28T18:55:11.089Z,2.92
2019-01-28T18:57:37.917Z,2.96
2019-01-28T19:00:10.180Z,2.93
2019-01-28T19:02:36.921Z,2.85
2019-01-28T19:07:57.125Z,2.89
2019-01-28T19:10:45.102Z,2.88
2019-01-28T19:13:17.391Z,2.88
2019-01-28T19:15:49.851Z,2.84
2019-01-28T19:18:55.784Z,2.88
2019-01-28T19:21:30.946Z,2.77
2019-01-28T19:23:58.196Z,2.72
2019-01-28T19:26:24.911Z,2.74
2019-01-28T19:29:32.719Z,2.74
2019-01-28T19:31:59.453Z,2.74
2019-01-28T19:34:26.619Z,2.71
2019-01-28T19:36:53.503Z,2.70
2019-01-28T19:39:20.335Z,2.75
2019-01-28T19:41:47.346Z,2.77
2019-01-28T19:44:14.082Z,2.77
2019-01-28T19:46:40.941Z,2.73
2019-01-28T19:49:07.738Z,2.75
2019-01-28T19:51:34.588Z,2.70
2019-01-28T19:54:01.693Z,2.67
2019-01-28T19:56:28.604Z,2.69
2019-01-28T19:58:55.495Z,2.67
2019-01-28T20:01:22.243Z,2.69
2019-01-28T20:03:49.980Z,2.72
2019-01-28T20:06:17.150Z,2.63
2019-01-28T20:08:44.548Z,2.64
2019-01-28T20:11:11.731Z,2.64
2019-01-28T20:13:38.515Z,2.64
2019-01-28T20:16:05.288Z,2.62
2019-01-28T20:18:32.289Z,2.63
2019-01-28T20:21:23.719Z,2.62
2019-01-28T20:23:47.935Z,2.60
2019-01-28T20:26:14.936Z,2.57
2019-01-28T20:28:42.363Z,2.58
2019-01-28T20:31:09.602Z,2.62
2019-01-28T20:33:36.342Z,2.60
2019-01-28T20:36:03.501Z,2.57
2019-01-28T20:38:30.541Z,2.55
2019-01-28T20:40:57.277Z,2.50
2019-01-28T20:43:24.434Z,2.54
2019-01-28T20:45:51.468Z,2.47
2019-01-28T20:48:18.243Z,2.45
2019-01-28T20:50:45.268Z,2.49
2019-01-28T20:53:12.018Z,2.48
2019-01-28T20:55:39.470Z,2.50
2019-01-28T20:58:06.380Z,2.52
2019-01-28T21:00:33.091Z,2.46
2019-01-28T21:02:59.949Z,2.47
2019-01-28T21:05:26.898Z,2.52
2019-01-28T21:07:53.780Z,2.51
2019-01-28T21:10:20.783Z,2.50
2019-01-28T21:13:10.129Z,2.47
2019-01-28T21:15:36.863Z,2.48
2019-01-28T21:18:03.689Z,2.50
2019-01-28T21:20:30.965Z,2.53
2019-01-28T21:22:57.880Z,2.56
2019-01-28T21:25:24.621Z,2.57
2019-01-28T21:27:51.602Z,2.51
2019-01-28T21:30:21.131Z,2.51
2019-01-28T21:32:48.257Z,2.47
2019-01-28T21:35:15.330Z,2.48
2019-01-28T21:38:02.083Z,2.52
2019-01-28T21:40:29.099Z,2.55
2019-01-28T21:42:56.326Z,2.51
2019-01-28T21:45:42.976Z,2.41
2019-01-28T21:48:29.878Z,2.45
2019-01-28T21:50:57.065Z,2.49
2019-01-28T21:53:23.806Z,2.52
2019-01-28T21:55:50.955Z,2.43
2019-01-28T21:58:18.022Z,2.40
2019-01-28T22:00:45.016Z,2.46
2019-01-28T22:03:12.074Z,2.49
2019-01-28T22:05:39.038Z,2.40
2019-01-28T22:08:05.884Z,2.35
2019-01-28T22:10:32.726Z,2.30
2019-01-28T22:12:59.593Z,2.41
2019-01-28T22:15:38.998Z,2.42
2019-01-28T22:18:05.936Z,2.44
2019-01-28T22:20:32.706Z,2.34
2019-01-28T22:22:59.568Z,2.37
2019-01-28T22:25:26.700Z,2.39
2019-01-28T22:27:57.390Z,2.45
2019-01-28T22:30:22.164Z,2.34
2019-01-28T22:33:09.104Z,2.37
2019-01-28T22:35:35.948Z,2.41
2019-01-28T22:38:02.888Z,2.28
2019-01-28T22:40:30.303Z,2.30
2019-01-28T22:42:57.035Z,2.32
2019-01-28T22:45:23.941Z,2.26
2019-01-28T22:47:50.997Z,2.25
2019-01-28T22:50:17.834Z,2.29
2019-01-28T22:52:44.695Z,2.26
2019-01-28T22:55:33.535Z,2.25
2019-01-28T22:58:00.392Z,2.25
2019-01-28T23:01:10.620Z,2.20
2019-01-28T23:03:37.356Z,2.28
2019-01-28T23:06:04.090Z,2.22
2019-01-28T23:08:31.609Z,2.23
2019-01-28T23:10:58.591Z,2.29
2019-01-28T23:13:25.333Z,2.22
2019-01-28T23:16:06.375Z,2.15
2019-01-28T23:18:35.211Z,2.15
2019-01-28T23:21:24.782Z,2.36
2019-01-28T23:23:53.647Z,2.26
2019-01-28T23:26:22.796Z,2.35
2019-01-28T23:28:51.178Z,2.35
2019-01-28T23:31:19.135Z,2.33
2019-01-28T23:33:50.011Z,2.26
2019-01-28T23:36:18.839Z,2.27
2019-01-28T23:39:06.583Z,2.28
2019-01-28T23:41:34.843Z,2.32
2019-01-28T23:44:03.642Z,2.33
2019-01-28T23:46:32.251Z,2.39
2019-01-28T23:49:20.002Z,2.39
2019-01-28T23:51:51.436Z,2.38
2019-01-28T23:54:20.630Z,2.45
2019-01-28T23:56:49.328Z,2.45
2019-01-28T23:59:19.966Z,2.50
